Terminal Aerodrome Forecast
Issued by NWS

Home | Current Version | Previous Version | Text Only | Print | Product List | Glossary On
Versions: 1 2 3 4 5 6 7 8 9 10 11 12 13 14 15 16
000
FTUS44 KLIX 220500 RRA
TAFMSY
TAF
KMSY 220540Z 2206/2306 09004KT 4SM BR BKN004
     FM220800 10005KT 3SM BR BKN005
      TEMPO 2209/2213 1SM BR BKN003
     FM221530 18006KT P6SM BKN025
     FM221700 21014G24KT P6SM BKN030
     FM222330 19009KT P6SM BKN020=

USA.gov is the U.S. government's official web portal to all federal, state and local government web resources and services.